sensor_id;sensor_type;location;lat;lon;timestamp;P1;durP1;ratioP1;P2;durP2;ratioP2
69185;SDS011;56298;49.246;9.410;2022-09-09T00:02:19;6.90;;;1.60;;
69185;SDS011;56298;49.246;9.410;2022-09-09T00:04:49;5.07;;;1.40;;
69185;SDS011;56298;49.246;9.410;2022-09-09T00:07:25;5.15;;;1.40;;
69185;SDS011;56298;49.246;9.410;2022-09-09T00:15:15;6.00;;;1.40;;
69185;SDS011;56298;49.246;9.410;2022-09-09T00:18:07;6.53;;;1.40;;
69185;SDS011;56298;49.246;9.410;2022-09-09T00:28:30;8.30;;;1.40;;
69185;SDS011;56298;49.246;9.410;2022-09-09T00:31:08;5.10;;;1.33;;
69185;SDS011;56298;49.246;9.410;2022-09-09T00:33:37;6.80;;;1.60;;
69185;SDS011;56298;49.246;9.410;2022-09-09T00:36:04;6.07;;;1.40;;
69185;SDS011;56298;49.246;9.410;2022-09-09T00:38:40;5.68;;;1.40;;
69185;SDS011;56298;49.246;9.410;2022-09-09T00:41:21;5.20;;;1.40;;
69185;SDS011;56298;49.246;9.410;2022-09-09T00:44:00;4.95;;;1.45;;
69185;SDS011;56298;49.246;9.410;2022-09-09T00:46:56;5.38;;;1.50;;
69185;SDS011;56298;49.246;9.410;2022-09-09T00:52:13;4.63;;;1.50;;
69185;SDS011;56298;49.246;9.410;2022-09-09T00:55:15;7.47;;;1.30;;
69185;SDS011;56298;49.246;9.410;2022-09-09T00:57:46;5.95;;;1.38;;
69185;SDS011;56298;49.246;9.410;2022-09-09T01:00:24;4.90;;;1.50;;
69185;SDS011;56298;49.246;9.410;2022-09-09T01:05:48;6.55;;;1.60;;
69185;SDS011;56298;49.246;9.410;2022-09-09T01:11:26;5.38;;;1.42;;
69185;SDS011;56298;49.246;9.410;2022-09-09T01:14:29;4.60;;;1.40;;
69185;SDS011;56298;49.246;9.410;2022-09-09T01:17:10;5.50;;;1.33;;
69185;SDS011;56298;49.246;9.410;2022-09-09T01:27:40;5.22;;;1.38;;
69185;SDS011;56298;49.246;9.410;2022-09-09T01:30:09;4.85;;;1.33;;
69185;SDS011;56298;49.246;9.410;2022-09-09T01:32:45;5.28;;;1.52;;
69185;SDS011;56298;49.246;9.410;2022-09-09T01:38:11;6.53;;;1.60;;
69185;SDS011;56298;49.246;9.410;2022-09-09T01:40:37;6.38;;;1.58;;
69185;SDS011;56298;49.246;9.410;2022-09-09T01:43:03;7.60;;;1.27;;
69185;SDS011;56298;49.246;9.410;2022-09-09T01:45:29;6.63;;;1.70;;
69185;SDS011;56298;49.246;9.410;2022-09-09T01:47:55;4.87;;;1.30;;
69185;SDS011;56298;49.246;9.410;2022-09-09T01:50:21;5.15;;;1.70;;
69185;SDS011;56298;49.246;9.410;2022-09-09T01:52:49;5.80;;;1.40;;
69185;SDS011;56298;49.246;9.410;2022-09-09T01:55:17;4.53;;;1.48;;
69185;SDS011;56298;49.246;9.410;2022-09-09T01:57:55;4.30;;;1.42;;
69185;SDS011;56298;49.246;9.410;2022-09-09T02:00:42;6.03;;;1.52;;
69185;SDS011;56298;49.246;9.410;2022-09-09T02:03:25;5.28;;;1.20;;
69185;SDS011;56298;49.246;9.410;2022-09-09T02:06:00;4.38;;;1.20;;
69185;SDS011;56298;49.246;9.410;2022-09-09T02:13:44;6.65;;;1.42;;
69185;SDS011;56298;49.246;9.410;2022-09-09T02:21:05;6.53;;;1.80;;
69185;SDS011;56298;49.246;9.410;2022-09-09T02:23:32;5.32;;;1.55;;
69185;SDS011;56298;49.246;9.410;2022-09-09T02:25:59;5.22;;;1.50;;
69185;SDS011;56298;49.246;9.410;2022-09-09T02:28:25;6.18;;;1.60;;
69185;SDS011;56298;49.246;9.410;2022-09-09T02:30:54;6.18;;;1.60;;
69185;SDS011;56298;49.246;9.410;2022-09-09T02:33:24;6.47;;;1.77;;
69185;SDS011;56298;49.246;9.410;2022-09-09T02:35:53;7.13;;;1.52;;
69185;SDS011;56298;49.246;9.410;2022-09-09T02:38:28;5.85;;;1.80;;
69185;SDS011;56298;49.246;9.410;2022-09-09T02:40:56;5.85;;;1.50;;
69185;SDS011;56298;49.246;9.410;2022-09-09T02:43:23;5.30;;;1.70;;
69185;SDS011;56298;49.246;9.410;2022-09-09T02:48:37;6.07;;;1.92;;
69185;SDS011;56298;49.246;9.410;2022-09-09T02:51:15;6.03;;;1.80;;
69185;SDS011;56298;49.246;9.410;2022-09-09T02:53:49;7.10;;;1.65;;
69185;SDS011;56298;49.246;9.410;2022-09-09T02:56:25;6.28;;;1.83;;
69185;SDS011;56298;49.246;9.410;2022-09-09T02:58:55;7.50;;;2.15;;
69185;SDS011;56298;49.246;9.410;2022-09-09T03:01:20;5.00;;;1.77;;
69185;SDS011;56298;49.246;9.410;2022-09-09T03:03:46;6.37;;;1.90;;
69185;SDS011;56298;49.246;9.410;2022-09-09T03:06:11;6.23;;;1.73;;
69185;SDS011;56298;49.246;9.410;2022-09-09T03:08:37;5.63;;;1.80;;
69185;SDS011;56298;49.246;9.410;2022-09-09T03:11:03;7.30;;;2.20;;
69185;SDS011;56298;49.246;9.410;2022-09-09T03:13:28;6.45;;;2.00;;
69185;SDS011;56298;49.246;9.410;2022-09-09T03:15:54;6.20;;;1.98;;
69185;SDS011;56298;49.246;9.410;2022-09-09T03:18:19;4.82;;;1.70;;
69185;SDS011;56298;49.246;9.410;2022-09-09T03:20:45;6.47;;;2.13;;
69185;SDS011;56298;49.246;9.410;2022-09-09T03:23:13;6.60;;;1.80;;
69185;SDS011;56298;49.246;9.410;2022-09-09T03:25:38;6.07;;;1.73;;
69185;SDS011;56298;49.246;9.410;2022-09-09T03:28:04;6.83;;;1.93;;
69185;SDS011;56298;49.246;9.410;2022-09-09T03:30:29;6.30;;;2.00;;
69185;SDS011;56298;49.246;9.410;2022-09-09T03:32:55;5.77;;;1.93;;
69185;SDS011;56298;49.246;9.410;2022-09-09T03:35:21;5.27;;;2.07;;
69185;SDS011;56298;49.246;9.410;2022-09-09T03:37:47;6.43;;;2.08;;
69185;SDS011;56298;49.246;9.410;2022-09-09T03:40:12;6.75;;;2.33;;
69185;SDS011;56298;49.246;9.410;2022-09-09T03:42:38;6.07;;;2.20;;
69185;SDS011;56298;49.246;9.410;2022-09-09T03:45:07;5.78;;;2.10;;
69185;SDS011;56298;49.246;9.410;2022-09-09T03:47:34;6.30;;;2.03;;
69185;SDS011;56298;49.246;9.410;2022-09-09T03:49:59;7.53;;;2.27;;
69185;SDS011;56298;49.246;9.410;2022-09-09T03:52:25;8.63;;;2.33;;
69185;SDS011;56298;49.246;9.410;2022-09-09T03:54:51;4.82;;;2.10;;
69185;SDS011;56298;49.246;9.410;2022-09-09T03:57:17;5.82;;;2.10;;
69185;SDS011;56298;49.246;9.410;2022-09-09T03:59:42;5.35;;;1.90;;
69185;SDS011;56298;49.246;9.410;2022-09-09T04:02:08;7.23;;;2.17;;
69185;SDS011;56298;49.246;9.410;2022-09-09T04:04:33;6.40;;;2.10;;
69185;SDS011;56298;49.246;9.410;2022-09-09T04:06:59;7.17;;;2.27;;
69185;SDS011;56298;49.246;9.410;2022-09-09T04:09:24;7.17;;;2.10;;
69185;SDS011;56298;49.246;9.410;2022-09-09T04:11:49;9.30;;;2.43;;
69185;SDS011;56298;49.246;9.410;2022-09-09T04:14:15;6.07;;;2.20;;
69185;SDS011;56298;49.246;9.410;2022-09-09T04:16:40;7.77;;;2.30;;
69185;SDS011;56298;49.246;9.410;2022-09-09T04:19:09;8.25;;;2.53;;
69185;SDS011;56298;49.246;9.410;2022-09-09T04:21:37;7.38;;;2.20;;
69185;SDS011;56298;49.246;9.410;2022-09-09T04:24:04;7.70;;;2.28;;
69185;SDS011;56298;49.246;9.410;2022-09-09T04:26:30;7.15;;;2.15;;
69185;SDS011;56298;49.246;9.410;2022-09-09T04:28:55;6.43;;;1.90;;
69185;SDS011;56298;49.246;9.410;2022-09-09T04:31:21;6.13;;;1.70;;
69185;SDS011;56298;49.246;9.410;2022-09-09T04:33:48;6.30;;;1.60;;
69185;SDS011;56298;49.246;9.410;2022-09-09T04:36:14;7.63;;;2.28;;
69185;SDS011;56298;49.246;9.410;2022-09-09T04:38:40;6.03;;;2.00;;
69185;SDS011;56298;49.246;9.410;2022-09-09T04:41:05;5.53;;;1.83;;
69185;SDS011;56298;49.246;9.410;2022-09-09T04:43:31;6.68;;;1.95;;
69185;SDS011;56298;49.246;9.410;2022-09-09T04:45:56;5.80;;;1.70;;
69185;SDS011;56298;49.246;9.410;2022-09-09T04:48:22;7.30;;;2.10;;
69185;SDS011;56298;49.246;9.410;2022-09-09T04:50:59;5.45;;;1.98;;
69185;SDS011;56298;49.246;9.410;2022-09-09T04:53:24;5.20;;;1.90;;
69185;SDS011;56298;49.246;9.410;2022-09-09T04:55:51;6.47;;;2.07;;
69185;SDS011;56298;49.246;9.410;2022-09-09T04:58:17;5.68;;;1.80;;
69185;SDS011;56298;49.246;9.410;2022-09-09T05:00:43;6.10;;;2.00;;
69185;SDS011;56298;49.246;9.410;2022-09-09T05:03:08;5.97;;;2.00;;
69185;SDS011;56298;49.246;9.410;2022-09-09T05:05:34;5.03;;;1.83;;
69185;SDS011;56298;49.246;9.410;2022-09-09T05:08:06;5.97;;;2.10;;
69185;SDS011;56298;49.246;9.410;2022-09-09T05:10:33;6.60;;;1.92;;
69185;SDS011;56298;49.246;9.410;2022-09-09T05:13:01;6.95;;;2.03;;
69185;SDS011;56298;49.246;9.410;2022-09-09T05:15:26;7.93;;;1.98;;
69185;SDS011;56298;49.246;9.410;2022-09-09T05:17:52;5.63;;;1.90;;
69185;SDS011;56298;49.246;9.410;2022-09-09T05:20:19;5.55;;;1.80;;
69185;SDS011;56298;49.246;9.410;2022-09-09T05:22:45;5.40;;;2.00;;
69185;SDS011;56298;49.246;9.410;2022-09-09T05:25:10;6.60;;;1.70;;
69185;SDS011;56298;49.246;9.410;2022-09-09T05:27:35;6.00;;;1.90;;
69185;SDS011;56298;49.246;9.410;2022-09-09T05:30:00;7.60;;;1.80;;
69185;SDS011;56298;49.246;9.410;2022-09-09T05:32:26;4.60;;;1.77;;
69185;SDS011;56298;49.246;9.410;2022-09-09T05:34:51;7.07;;;1.90;;
69185;SDS011;56298;49.246;9.410;2022-09-09T05:37:17;5.93;;;1.80;;
69185;SDS011;56298;49.246;9.410;2022-09-09T05:39:43;6.78;;;1.60;;
69185;SDS011;56298;49.246;9.410;2022-09-09T05:42:08;6.77;;;1.90;;
69185;SDS011;56298;49.246;9.410;2022-09-09T05:44:33;6.57;;;1.90;;
69185;SDS011;56298;49.246;9.410;2022-09-09T05:46:59;7.57;;;2.13;;
69185;SDS011;56298;49.246;9.410;2022-09-09T05:49:24;6.43;;;2.00;;
69185;SDS011;56298;49.246;9.410;2022-09-09T05:51:50;5.83;;;1.37;;
69185;SDS011;56298;49.246;9.410;2022-09-09T05:56:48;6.10;;;1.80;;
69185;SDS011;56298;49.246;9.410;2022-09-09T05:59:15;5.93;;;1.70;;
69185;SDS011;56298;49.246;9.410;2022-09-09T06:01:44;5.25;;;1.85;;
69185;SDS011;56298;49.246;9.410;2022-09-09T06:04:10;4.60;;;1.48;;
69185;SDS011;56298;49.246;9.410;2022-09-09T06:06:36;5.47;;;1.70;;
69185;SDS011;56298;49.246;9.410;2022-09-09T06:09:05;5.45;;;1.42;;
69185;SDS011;56298;49.246;9.410;2022-09-09T06:11:34;4.55;;;1.55;;
69185;SDS011;56298;49.246;9.410;2022-09-09T06:14:01;5.80;;;1.65;;
69185;SDS011;56298;49.246;9.410;2022-09-09T06:16:27;6.18;;;1.73;;
69185;SDS011;56298;49.246;9.410;2022-09-09T06:18:53;6.50;;;1.50;;
69185;SDS011;56298;49.246;9.410;2022-09-09T06:21:22;4.57;;;1.40;;
69185;SDS011;56298;49.246;9.410;2022-09-09T06:23:48;4.63;;;1.20;;
69185;SDS011;56298;49.246;9.410;2022-09-09T06:26:15;5.27;;;1.30;;
69185;SDS011;56298;49.246;9.410;2022-09-09T06:28:45;6.38;;;1.38;;
69185;SDS011;56298;49.246;9.410;2022-09-09T06:31:15;4.83;;;1.33;;
69185;SDS011;56298;49.246;9.410;2022-09-09T06:33:42;5.78;;;1.33;;
69185;SDS011;56298;49.246;9.410;2022-09-09T06:39:04;4.05;;;1.30;;
69185;SDS011;56298;49.246;9.410;2022-09-09T06:41:31;4.03;;;1.23;;
69185;SDS011;56298;49.246;9.410;2022-09-09T06:43:57;5.30;;;1.10;;
69185;SDS011;56298;49.246;9.410;2022-09-09T06:46:24;4.32;;;1.02;;
69185;SDS011;56298;49.246;9.410;2022-09-09T06:48:56;4.63;;;1.30;;
69185;SDS011;56298;49.246;9.410;2022-09-09T06:51:26;4.47;;;1.38;;
69185;SDS011;56298;49.246;9.410;2022-09-09T06:53:54;5.93;;;1.10;;
69185;SDS011;56298;49.246;9.410;2022-09-09T06:56:33;5.75;;;1.10;;
69185;SDS011;56298;49.246;9.410;2022-09-09T06:59:00;5.72;;;1.38;;
69185;SDS011;56298;49.246;9.410;2022-09-09T07:01:29;3.58;;;0.90;;
69185;SDS011;56298;49.246;9.410;2022-09-09T07:03:57;4.67;;;1.10;;
69185;SDS011;56298;49.246;9.410;2022-09-09T07:06:43;4.97;;;0.80;;
69185;SDS011;56298;49.246;9.410;2022-09-09T07:09:10;4.55;;;0.80;;
69185;SDS011;56298;49.246;9.410;2022-09-09T07:11:38;3.88;;;0.77;;
69185;SDS011;56298;49.246;9.410;2022-09-09T07:14:06;4.28;;;0.60;;
69185;SDS011;56298;49.246;9.410;2022-09-09T07:16:32;4.97;;;0.60;;
69185;SDS011;56298;49.246;9.410;2022-09-09T07:18:58;4.90;;;0.70;;
69185;SDS011;56298;49.246;9.410;2022-09-09T07:21:25;3.92;;;0.60;;
69185;SDS011;56298;49.246;9.410;2022-09-09T07:23:51;4.70;;;0.70;;
69185;SDS011;56298;49.246;9.410;2022-09-09T07:26:18;3.50;;;0.50;;
69185;SDS011;56298;49.246;9.410;2022-09-09T07:28:46;3.97;;;0.60;;
69185;SDS011;56298;49.246;9.410;2022-09-09T07:31:18;3.50;;;0.50;;
69185;SDS011;56298;49.246;9.410;2022-09-09T07:33:45;3.70;;;0.50;;
69185;SDS011;56298;49.246;9.410;2022-09-09T07:36:15;3.70;;;0.50;;
69185;SDS011;56298;49.246;9.410;2022-09-09T07:38:57;4.07;;;0.50;;
69185;SDS011;56298;49.246;9.410;2022-09-09T07:41:25;3.83;;;0.65;;
69185;SDS011;56298;49.246;9.410;2022-09-09T07:43:53;5.07;;;0.40;;
69185;SDS011;56298;49.246;9.410;2022-09-09T07:46:20;3.42;;;0.60;;
69185;SDS011;56298;49.246;9.410;2022-09-09T07:48:47;5.47;;;0.60;;
69185;SDS011;56298;49.246;9.410;2022-09-09T07:51:18;3.57;;;0.60;;
69185;SDS011;56298;49.246;9.410;2022-09-09T07:53:47;3.47;;;0.47;;
69185;SDS011;56298;49.246;9.410;2022-09-09T07:56:14;4.10;;;0.60;;
69185;SDS011;56298;49.246;9.410;2022-09-09T07:58:46;4.65;;;0.60;;
69185;SDS011;56298;49.246;9.410;2022-09-09T08:01:16;5.05;;;0.70;;
69185;SDS011;56298;49.246;9.410;2022-09-09T08:03:59;4.70;;;0.60;;
69185;SDS011;56298;49.246;9.410;2022-09-09T08:06:27;4.57;;;0.50;;
69185;SDS011;56298;49.246;9.410;2022-09-09T08:08:53;3.80;;;0.60;;
69185;SDS011;56298;49.246;9.410;2022-09-09T08:11:20;5.70;;;0.60;;
69185;SDS011;56298;49.246;9.410;2022-09-09T08:13:46;4.78;;;0.52;;
69185;SDS011;56298;49.246;9.410;2022-09-09T08:16:14;4.72;;;0.70;;
69185;SDS011;56298;49.246;9.410;2022-09-09T08:18:44;4.13;;;0.50;;
69185;SDS011;56298;49.246;9.410;2022-09-09T08:21:14;4.43;;;0.53;;
69185;SDS011;56298;49.246;9.410;2022-09-09T08:23:42;5.75;;;0.70;;
69185;SDS011;56298;49.246;9.410;2022-09-09T08:26:11;5.05;;;0.70;;
69185;SDS011;56298;49.246;9.410;2022-09-09T08:28:38;4.50;;;0.50;;
69185;SDS011;56298;49.246;9.410;2022-09-09T08:31:11;6.18;;;0.50;;
69185;SDS011;56298;49.246;9.410;2022-09-09T08:33:39;5.03;;;0.52;;
69185;SDS011;56298;49.246;9.410;2022-09-09T08:36:06;6.28;;;0.60;;
69185;SDS011;56298;49.246;9.410;2022-09-09T08:38:34;5.93;;;0.70;;
69185;SDS011;56298;49.246;9.410;2022-09-09T08:44:04;5.20;;;0.60;;
69185;SDS011;56298;49.246;9.410;2022-09-09T08:46:41;6.05;;;0.73;;
69185;SDS011;56298;49.246;9.410;2022-09-09T08:55:45;5.72;;;0.70;;
69185;SDS011;56298;49.246;9.410;2022-09-09T08:58:32;6.10;;;0.80;;
69185;SDS011;56298;49.246;9.410;2022-09-09T09:06:36;6.70;;;0.98;;
69185;SDS011;56298;49.246;9.410;2022-09-09T09:09:22;6.50;;;1.00;;
69185;SDS011;56298;49.246;9.410;2022-09-09T09:11:54;7.40;;;0.93;;
69185;SDS011;56298;49.246;9.410;2022-09-09T09:14:25;6.10;;;0.82;;
69185;SDS011;56298;49.246;9.410;2022-09-09T09:16:53;6.70;;;1.00;;
69185;SDS011;56298;49.246;9.410;2022-09-09T09:19:22;5.25;;;0.80;;
69185;SDS011;56298;49.246;9.410;2022-09-09T09:21:52;4.87;;;0.73;;
69185;SDS011;56298;49.246;9.410;2022-09-09T09:24:25;6.93;;;0.90;;
69185;SDS011;56298;49.246;9.410;2022-09-09T09:26:57;5.50;;;0.80;;
69185;SDS011;56298;49.246;9.410;2022-09-09T09:29:29;4.90;;;0.80;;
69185;SDS011;56298;49.246;9.410;2022-09-09T09:31:55;5.53;;;0.80;;
69185;SDS011;56298;49.246;9.410;2022-09-09T09:34:24;5.75;;;0.73;;
69185;SDS011;56298;49.246;9.410;2022-09-09T09:36:56;6.87;;;0.90;;
69185;SDS011;56298;49.246;9.410;2022-09-09T09:39:26;5.63;;;0.70;;
69185;SDS011;56298;49.246;9.410;2022-09-09T09:41:55;6.00;;;0.80;;
69185;SDS011;56298;49.246;9.410;2022-09-09T09:44:22;4.68;;;0.60;;
69185;SDS011;56298;49.246;9.410;2022-09-09T09:47:07;5.50;;;0.52;;
69185;SDS011;56298;49.246;9.410;2022-09-09T09:49:33;4.57;;;0.60;;
69185;SDS011;56298;49.246;9.410;2022-09-09T09:52:02;5.95;;;0.73;;
69185;SDS011;56298;49.246;9.410;2022-09-09T09:54:29;6.07;;;0.80;;
69185;SDS011;56298;49.246;9.410;2022-09-09T09:57:07;4.78;;;0.70;;
69185;SDS011;56298;49.246;9.410;2022-09-09T09:59:34;5.53;;;0.60;;
69185;SDS011;56298;49.246;9.410;2022-09-09T10:04:40;4.70;;;0.82;;
69185;SDS011;56298;49.246;9.410;2022-09-09T10:07:13;12.07;;;1.40;;
69185;SDS011;56298;49.246;9.410;2022-09-09T10:09:43;9.02;;;1.25;;
69185;SDS011;56298;49.246;9.410;2022-09-09T10:12:27;9.03;;;1.30;;
69185;SDS011;56298;49.246;9.410;2022-09-09T10:15:07;5.47;;;0.70;;
69185;SDS011;56298;49.246;9.410;2022-09-09T10:21:06;7.03;;;0.60;;
69185;SDS011;56298;49.246;9.410;2022-09-09T10:32:06;6.57;;;0.70;;
69185;SDS011;56298;49.246;9.410;2022-09-09T10:34:51;5.28;;;0.70;;
69185;SDS011;56298;49.246;9.410;2022-09-09T10:37:29;4.47;;;0.52;;
69185;SDS011;56298;49.246;9.410;2022-09-09T10:42:44;4.25;;;0.52;;
69185;SDS011;56298;49.246;9.410;2022-09-09T10:45:23;5.83;;;0.60;;
69185;SDS011;56298;49.246;9.410;2022-09-09T10:48:09;3.92;;;0.50;;
69185;SDS011;56298;49.246;9.410;2022-09-09T10:50:43;3.33;;;0.43;;
69185;SDS011;56298;49.246;9.410;2022-09-09T10:53:37;3.85;;;0.38;;
69185;SDS011;56298;49.246;9.410;2022-09-09T10:56:28;3.92;;;0.50;;
69185;SDS011;56298;49.246;9.410;2022-09-09T10:59:00;5.23;;;0.60;;
69185;SDS011;56298;49.246;9.410;2022-09-09T11:01:36;3.87;;;0.60;;
69185;SDS011;56298;49.246;9.410;2022-09-09T11:04:15;5.10;;;0.60;;
69185;SDS011;56298;49.246;9.410;2022-09-09T11:06:44;6.20;;;0.60;;
69185;SDS011;56298;49.246;9.410;2022-09-09T11:09:17;4.80;;;0.68;;
69185;SDS011;56298;49.246;9.410;2022-09-09T11:11:51;5.88;;;0.70;;
69185;SDS011;56298;49.246;9.410;2022-09-09T11:14:23;4.53;;;0.70;;
69185;SDS011;56298;49.246;9.410;2022-09-09T11:16:58;4.60;;;0.50;;
69185;SDS011;56298;49.246;9.410;2022-09-09T11:19:44;5.18;;;0.60;;
69185;SDS011;56298;49.246;9.410;2022-09-09T11:25:18;4.57;;;0.60;;
69185;SDS011;56298;49.246;9.410;2022-09-09T11:30:37;5.35;;;0.43;;
69185;SDS011;56298;49.246;9.410;2022-09-09T11:35:58;5.30;;;0.60;;
69185;SDS011;56298;49.246;9.410;2022-09-09T11:38:40;4.23;;;0.40;;
69185;SDS011;56298;49.246;9.410;2022-09-09T11:41:10;4.28;;;0.50;;
69185;SDS011;56298;49.246;9.410;2022-09-09T11:43:43;4.87;;;0.43;;
69185;SDS011;56298;49.246;9.410;2022-09-09T11:46:11;4.30;;;0.60;;
69185;SDS011;56298;49.246;9.410;2022-09-09T11:48:42;3.63;;;0.50;;
69185;SDS011;56298;49.246;9.410;2022-09-09T11:53:51;3.45;;;0.60;;
69185;SDS011;56298;49.246;9.410;2022-09-09T11:56:26;3.92;;;0.47;;
69185;SDS011;56298;49.246;9.410;2022-09-09T12:04:09;5.00;;;0.70;;
69185;SDS011;56298;49.246;9.410;2022-09-09T12:06:45;4.70;;;0.60;;
69185;SDS011;56298;49.246;9.410;2022-09-09T12:09:22;5.13;;;0.53;;
69185;SDS011;56298;49.246;9.410;2022-09-09T12:12:04;5.53;;;0.77;;
69185;SDS011;56298;49.246;9.410;2022-09-09T12:14:38;4.63;;;0.70;;
69185;SDS011;56298;49.246;9.410;2022-09-09T12:17:19;5.35;;;0.73;;
69185;SDS011;56298;49.246;9.410;2022-09-09T12:19:45;5.72;;;0.70;;
69185;SDS011;56298;49.246;9.410;2022-09-09T12:27:48;5.07;;;0.70;;
69185;SDS011;56298;49.246;9.410;2022-09-09T12:30:21;5.50;;;0.75;;
69185;SDS011;56298;49.246;9.410;2022-09-09T12:32:59;4.97;;;0.60;;
69185;SDS011;56298;49.246;9.410;2022-09-09T12:35:27;3.57;;;0.47;;
69185;SDS011;56298;49.246;9.410;2022-09-09T12:37:56;4.55;;;0.60;;
69185;SDS011;56298;49.246;9.410;2022-09-09T12:40:31;4.55;;;0.50;;
69185;SDS011;56298;49.246;9.410;2022-09-09T12:43:00;4.00;;;0.47;;
69185;SDS011;56298;49.246;9.410;2022-09-09T12:45:27;2.88;;;0.40;;
69185;SDS011;56298;49.246;9.410;2022-09-09T12:50:37;2.87;;;0.37;;
69185;SDS011;56298;49.246;9.410;2022-09-09T12:53:17;3.50;;;0.35;;
69185;SDS011;56298;49.246;9.410;2022-09-09T12:55:56;2.70;;;0.30;;
69185;SDS011;56298;49.246;9.410;2022-09-09T12:58:24;3.08;;;0.40;;
69185;SDS011;56298;49.246;9.410;2022-09-09T13:00:51;3.47;;;0.32;;
69185;SDS011;56298;49.246;9.410;2022-09-09T13:03:19;2.93;;;0.30;;
69185;SDS011;56298;49.246;9.410;2022-09-09T13:05:45;2.78;;;0.40;;
69185;SDS011;56298;49.246;9.410;2022-09-09T13:08:12;4.13;;;0.40;;
69185;SDS011;56298;49.246;9.410;2022-09-09T13:13:23;3.50;;;0.40;;
69185;SDS011;56298;49.246;9.410;2022-09-09T13:15:52;2.90;;;0.30;;
69185;SDS011;56298;49.246;9.410;2022-09-09T13:18:24;3.10;;;0.60;;
69185;SDS011;56298;49.246;9.410;2022-09-09T13:21:00;2.80;;;0.38;;
69185;SDS011;56298;49.246;9.410;2022-09-09T13:23:26;3.07;;;0.40;;
69185;SDS011;56298;49.246;9.410;2022-09-09T13:26:39;3.17;;;0.35;;
69185;SDS011;56298;49.246;9.410;2022-09-09T13:28:47;2.45;;;0.30;;
69185;SDS011;56298;49.246;9.410;2022-09-09T13:31:20;2.83;;;0.35;;
69185;SDS011;56298;49.246;9.410;2022-09-09T13:33:57;3.13;;;0.30;;
69185;SDS011;56298;49.246;9.410;2022-09-09T13:36:33;2.67;;;0.30;;
69185;SDS011;56298;49.246;9.410;2022-09-09T13:39:00;2.63;;;0.20;;
69185;SDS011;56298;49.246;9.410;2022-09-09T13:44:01;3.05;;;0.40;;
69185;SDS011;56298;49.246;9.410;2022-09-09T13:54:02;3.10;;;0.32;;
69185;SDS011;56298;49.246;9.410;2022-09-09T13:56:31;3.92;;;0.40;;
69185;SDS011;56298;49.246;9.410;2022-09-09T13:58:57;4.15;;;0.60;;
69185;SDS011;56298;49.246;9.410;2022-09-09T14:01:23;3.50;;;0.30;;
69185;SDS011;56298;49.246;9.410;2022-09-09T14:03:48;3.50;;;0.40;;
69185;SDS011;56298;49.246;9.410;2022-09-09T14:06:13;4.00;;;0.30;;
69185;SDS011;56298;49.246;9.410;2022-09-09T14:08:39;2.93;;;0.50;;
69185;SDS011;56298;49.246;9.410;2022-09-09T14:11:05;3.10;;;0.50;;
69185;SDS011;56298;49.246;9.410;2022-09-09T14:13:31;4.03;;;0.50;;
69185;SDS011;56298;49.246;9.410;2022-09-09T14:15:56;3.15;;;0.30;;
69185;SDS011;56298;49.246;9.410;2022-09-09T14:18:22;3.70;;;0.50;;
69185;SDS011;56298;49.246;9.410;2022-09-09T14:20:48;3.67;;;0.30;;
69185;SDS011;56298;49.246;9.410;2022-09-09T14:23:15;4.30;;;0.40;;
69185;SDS011;56298;49.246;9.410;2022-09-09T14:25:41;3.92;;;0.50;;
69185;SDS011;56298;49.246;9.410;2022-09-09T14:28:11;3.88;;;0.43;;
69185;SDS011;56298;49.246;9.410;2022-09-09T14:30:39;4.03;;;0.50;;
69185;SDS011;56298;49.246;9.410;2022-09-09T14:33:05;3.33;;;0.50;;
69185;SDS011;56298;49.246;9.410;2022-09-09T14:35:32;3.95;;;0.50;;
69185;SDS011;56298;49.246;9.410;2022-09-09T14:37:58;4.72;;;0.40;;
69185;SDS011;56298;49.246;9.410;2022-09-09T14:40:26;2.97;;;0.40;;
69185;SDS011;56298;49.246;9.410;2022-09-09T14:42:52;4.17;;;0.50;;
69185;SDS011;56298;49.246;9.410;2022-09-09T14:45:17;4.07;;;0.50;;
69185;SDS011;56298;49.246;9.410;2022-09-09T14:47:45;3.63;;;0.60;;
69185;SDS011;56298;49.246;9.410;2022-09-09T14:50:11;4.20;;;0.50;;
69185;SDS011;56298;49.246;9.410;2022-09-09T14:52:46;3.15;;;0.50;;
69185;SDS011;56298;49.246;9.410;2022-09-09T14:55:12;3.03;;;0.35;;
69185;SDS011;56298;49.246;9.410;2022-09-09T14:57:37;4.67;;;0.50;;
69185;SDS011;56298;49.246;9.410;2022-09-09T15:00:04;3.85;;;0.50;;
69185;SDS011;56298;49.246;9.410;2022-09-09T15:02:30;4.28;;;0.40;;
69185;SDS011;56298;49.246;9.410;2022-09-09T15:04:56;5.20;;;0.40;;
69185;SDS011;56298;49.246;9.410;2022-09-09T15:07:24;3.42;;;0.30;;
69185;SDS011;56298;49.246;9.410;2022-09-09T15:09:50;5.30;;;0.40;;
69185;SDS011;56298;49.246;9.410;2022-09-09T15:12:16;3.40;;;0.40;;
69185;SDS011;56298;49.246;9.410;2022-09-09T15:14:43;3.67;;;0.50;;
69185;SDS011;56298;49.246;9.410;2022-09-09T15:17:09;3.30;;;0.30;;
69185;SDS011;56298;49.246;9.410;2022-09-09T15:19:34;3.60;;;0.43;;
69185;SDS011;56298;49.246;9.410;2022-09-09T15:22:01;4.32;;;0.60;;
69185;SDS011;56298;49.246;9.410;2022-09-09T15:24:26;4.00;;;0.37;;
69185;SDS011;56298;49.246;9.410;2022-09-09T15:26:51;3.23;;;0.40;;
69185;SDS011;56298;49.246;9.410;2022-09-09T15:29:18;3.75;;;0.35;;
69185;SDS011;56298;49.246;9.410;2022-09-09T15:31:44;3.23;;;0.40;;
69185;SDS011;56298;49.246;9.410;2022-09-09T15:34:09;3.80;;;0.50;;
69185;SDS011;56298;49.246;9.410;2022-09-09T15:36:38;2.93;;;0.30;;
69185;SDS011;56298;49.246;9.410;2022-09-09T15:39:09;4.45;;;0.40;;
69185;SDS011;56298;49.246;9.410;2022-09-09T15:41:41;3.63;;;0.50;;
69185;SDS011;56298;49.246;9.410;2022-09-09T15:44:07;3.65;;;0.40;;
69185;SDS011;56298;49.246;9.410;2022-09-09T15:46:35;3.63;;;0.40;;
69185;SDS011;56298;49.246;9.410;2022-09-09T15:49:04;3.47;;;0.40;;
69185;SDS011;56298;49.246;9.410;2022-09-09T15:51:32;4.30;;;0.40;;
69185;SDS011;56298;49.246;9.410;2022-09-09T15:53:57;3.58;;;0.50;;
69185;SDS011;56298;49.246;9.410;2022-09-09T15:56:24;2.53;;;0.38;;
69185;SDS011;56298;49.246;9.410;2022-09-09T15:58:52;3.17;;;0.50;;
69185;SDS011;56298;49.246;9.410;2022-09-09T16:01:18;3.27;;;0.50;;
69185;SDS011;56298;49.246;9.410;2022-09-09T16:03:44;3.63;;;0.57;;
69185;SDS011;56298;49.246;9.410;2022-09-09T16:06:12;4.10;;;0.60;;
69185;SDS011;56298;49.246;9.410;2022-09-09T16:08:42;4.97;;;0.80;;
69185;SDS011;56298;49.246;9.410;2022-09-09T16:11:13;3.65;;;0.73;;
69185;SDS011;56298;49.246;9.410;2022-09-09T16:13:43;3.67;;;0.60;;
69185;SDS011;56298;49.246;9.410;2022-09-09T16:16:13;3.25;;;0.55;;
69185;SDS011;56298;49.246;9.410;2022-09-09T16:18:40;5.15;;;0.63;;
69185;SDS011;56298;49.246;9.410;2022-09-09T16:21:14;3.65;;;0.40;;
69185;SDS011;56298;49.246;9.410;2022-09-09T16:23:44;3.90;;;0.50;;
69185;SDS011;56298;49.246;9.410;2022-09-09T16:26:13;4.47;;;0.47;;
69185;SDS011;56298;49.246;9.410;2022-09-09T16:28:39;5.10;;;0.40;;
69185;SDS011;56298;49.246;9.410;2022-09-09T16:31:06;3.27;;;0.50;;
69185;SDS011;56298;49.246;9.410;2022-09-09T16:33:32;3.88;;;0.70;;
69185;SDS011;56298;49.246;9.410;2022-09-09T16:35:57;4.00;;;0.60;;
69185;SDS011;56298;49.246;9.410;2022-09-09T16:38:22;4.97;;;0.63;;
69185;SDS011;56298;49.246;9.410;2022-09-09T16:40:48;3.53;;;0.50;;
69185;SDS011;56298;49.246;9.410;2022-09-09T16:43:14;6.00;;;0.73;;
69185;SDS011;56298;49.246;9.410;2022-09-09T16:45:43;4.53;;;0.60;;
69185;SDS011;56298;49.246;9.410;2022-09-09T16:48:10;3.15;;;0.50;;
69185;SDS011;56298;49.246;9.410;2022-09-09T16:50:35;4.72;;;0.70;;
69185;SDS011;56298;49.246;9.410;2022-09-09T16:53:00;6.07;;;0.63;;
69185;SDS011;56298;49.246;9.410;2022-09-09T16:55:31;5.83;;;0.90;;
69185;SDS011;56298;49.246;9.410;2022-09-09T16:57:57;4.78;;;0.60;;
69185;SDS011;56298;49.246;9.410;2022-09-09T17:00:22;5.67;;;1.00;;
69185;SDS011;56298;49.246;9.410;2022-09-09T17:02:48;4.90;;;1.25;;
69185;SDS011;56298;49.246;9.410;2022-09-09T17:05:13;5.33;;;1.20;;